Startpagina
METAR-TAF:

METAR-TAF

Vliegvelden :

Aérodrome de Pontoise-Cormeilles-en-Vexin

Pontoise, Frankrijk

breedte: 49-05-48N, lengte: 002-02-27E, hoogte: 99 m

Actueel weer

Dit bericht is 15 minuten geleden gemaakt, om 00:30 UTC
Wind 5 kt uit het noordnoordwesten
Temperatuur -3°C
Vochtigheid 93%
Druk 1008 hPa
Zicht: 5000 m
Verspreide wolken op 1100 ft
Gebroken wolken op 2300 ft
nevel

METAR: LFPT 240030Z AUTO 34005KT 5000 BR SCT011 BKN023 M03/M04 Q1008

Tijdstip: 01:45 (00:45 UTC)


TAF: ontbreekt

Waarnemingen en weersverwachtingen van meer dan 4000 vliegvelden (METAR en TAF).

De beschikbare stations zijn de gele en rode punten op de kaart.

Ga met uw muis naar het station om de naam te zien.

Klik dan om waarnemingen en weersverwachtingen te zien.

kaart wijzigen: klik op de groene knoppen met een zwart kruis om in te zoomen, op de groene knop met een streepje om uit te zoomen of op de groene pijlen voor aangrenzende kaarten.


METAR-TAF: